createdAt,value
2018-11-20T00:02:37.483Z,4.40
2018-11-20T00:05:20.045Z,4.50
2018-11-20T00:08:02.517Z,4.50
2018-11-20T00:10:44.928Z,4.50
2018-11-20T00:13:27.284Z,4.50
2018-11-20T00:16:09.782Z,4.60
2018-11-20T00:18:52.231Z,4.30
2018-11-20T00:21:22.434Z,4.50
2018-11-20T00:24:04.696Z,4.50
2018-11-20T00:26:47.205Z,4.50
2018-11-20T00:29:29.636Z,4.60
2018-11-20T00:32:12.041Z,4.50
2018-11-20T00:34:54.758Z,4.60
2018-11-20T00:37:37.165Z,4.50
2018-11-20T00:40:19.456Z,4.50
2018-11-20T00:43:01.650Z,4.40
2018-11-20T00:45:44.185Z,4.40
2018-11-20T00:48:26.598Z,4.50
2018-11-20T00:51:09.481Z,4.40
2018-11-20T00:53:51.867Z,4.40
2018-11-20T00:56:53.546Z,4.50
2018-11-20T00:59:36.111Z,4.50
2018-11-20T01:02:18.546Z,4.50
2018-11-20T01:05:00.851Z,4.50
2018-11-20T01:07:43.376Z,4.50
2018-11-20T01:10:25.812Z,4.40
2018-11-20T01:13:08.257Z,4.50
2018-11-20T01:15:50.768Z,4.50
2018-11-20T01:18:33.352Z,4.50
2018-11-20T01:21:06.119Z,4.50
2018-11-20T01:23:48.543Z,4.50
2018-11-20T01:26:30.823Z,4.50
2018-11-20T01:29:13.565Z,4.50
2018-11-20T01:31:55.977Z,4.50
2018-11-20T01:34:38.192Z,4.50
2018-11-20T01:37:20.440Z,4.50
2018-11-20T01:40:02.965Z,4.50
2018-11-20T01:42:45.404Z,4.60
2018-11-20T01:45:27.860Z,4.60
2018-11-20T01:48:10.378Z,4.50
2018-11-20T01:50:52.830Z,4.50
2018-11-20T01:53:35.306Z,4.60
2018-11-20T01:58:48.345Z,4.60
2018-11-20T02:01:23.305Z,4.50
2018-11-20T02:06:16.064Z,4.60
2018-11-20T02:08:50.855Z,4.60
2018-11-20T02:13:43.284Z,4.60
2018-11-20T02:16:18.731Z,4.60
2018-11-20T02:18:53.918Z,4.60
2018-11-20T02:21:34.515Z,4.50
2018-11-20T02:24:09.941Z,4.50
2018-11-20T02:26:34.880Z,4.50
2018-11-20T02:29:09.266Z,4.50
2018-11-20T02:34:46.695Z,4.50
2018-11-20T02:40:07.948Z,4.50
2018-11-20T02:42:57.837Z,4.50
2018-11-20T02:45:17.844Z,4.50
2018-11-20T02:47:53.399Z,4.50
2018-11-20T02:50:31.967Z,4.60
2018-11-20T02:53:07.355Z,4.60
2018-11-20T02:55:34.332Z,4.50
2018-11-20T02:58:06.531Z,4.60
2018-11-20T03:00:41.490Z,4.30
2018-11-20T03:05:46.091Z,4.30
2018-11-20T03:08:20.915Z,4.30
2018-11-20T03:10:55.873Z,4.20
2018-11-20T03:13:37.202Z,4.30
2018-11-20T03:16:12.311Z,4.20
2018-11-20T03:18:47.222Z,4.20
2018-11-20T03:21:28.263Z,4.20
2018-11-20T03:24:03.461Z,4.20
2018-11-20T03:26:37.889Z,4.20
2018-11-20T03:29:16.519Z,4.20
2018-11-20T03:34:08.827Z,4.20
2018-11-20T03:36:43.435Z,4.20
2018-11-20T03:39:21.918Z,4.20
2018-11-20T03:41:56.555Z,4.10
2018-11-20T03:44:21.913Z,4.20
2018-11-20T03:47:00.135Z,4.20
2018-11-20T03:51:52.488Z,4.20
2018-11-20T03:54:27.368Z,4.20
2018-11-20T03:56:52.558Z,4.20
2018-11-20T04:01:39.512Z,4.20
2018-11-20T04:04:14.366Z,4.20
2018-11-20T04:06:49.909Z,4.20
2018-11-20T04:09:22.802Z,4.20
2018-11-20T04:11:57.707Z,4.20
2018-11-20T04:14:33.086Z,4.20
2018-11-20T04:17:08.106Z,4.20
2018-11-20T04:19:48.875Z,4.10
2018-11-20T04:22:23.708Z,4.10
2018-11-20T04:24:58.687Z,4.10
2018-11-20T04:27:33.807Z,4.00
2018-11-20T04:30:08.195Z,3.90
2018-11-20T04:32:40.765Z,3.90
2018-11-20T04:35:09.405Z,3.90
2018-11-20T04:40:05.615Z,3.90
2018-11-20T04:42:40.263Z,3.80
2018-11-20T04:45:15.363Z,3.80
2018-11-20T04:47:50.446Z,3.80
2018-11-20T04:50:25.093Z,3.70
2018-11-20T04:52:48.481Z,3.70
2018-11-20T04:55:23.678Z,3.80
2018-11-20T04:57:58.213Z,3.70
2018-11-20T05:00:33.136Z,3.60
2018-11-20T05:03:08.617Z,3.60
2018-11-20T05:05:43.328Z,3.60
2018-11-20T05:08:10.415Z,3.50
2018-11-20T05:10:45.326Z,3.50
2018-11-20T05:13:20.708Z,3.50
2018-11-20T05:18:13.410Z,3.50
2018-11-20T05:20:48.180Z,3.50
2018-11-20T05:25:42.975Z,3.60
2018-11-20T05:28:18.286Z,3.70
2018-11-20T05:30:44.291Z,3.60
2018-11-20T05:33:22.828Z,3.60
2018-11-20T05:35:58.114Z,3.70
2018-11-20T05:38:33.051Z,3.70
2018-11-20T05:41:07.614Z,3.60
2018-11-20T05:43:48.883Z,3.60
2018-11-20T05:46:18.707Z,3.60
2018-11-20T05:51:40.560Z,3.70
2018-11-20T05:54:10.161Z,3.60
2018-11-20T05:56:45.466Z,3.60
2018-11-20T05:59:20.858Z,3.60
2018-11-20T06:01:55.694Z,3.60
2018-11-20T06:04:31.157Z,3.50
2018-11-20T06:06:54.514Z,3.50
2018-11-20T06:09:30.184Z,3.50
2018-11-20T06:12:04.942Z,3.50
2018-11-20T06:17:23.197Z,3.40
2018-11-20T06:19:48.921Z,3.50
2018-11-20T06:22:24.220Z,3.40
2018-11-20T06:30:03.947Z,3.40
2018-11-20T06:32:39.382Z,3.40
2018-11-20T06:35:14.451Z,3.40
2018-11-20T06:40:28.971Z,3.40
2018-11-20T06:43:03.643Z,3.40
2018-11-20T06:47:55.975Z,3.40
2018-11-20T06:50:31.742Z,3.40
2018-11-20T06:53:06.531Z,3.40
2018-11-20T06:55:40.987Z,3.40
2018-11-20T06:58:15.507Z,3.40
2018-11-20T07:00:56.268Z,3.40
2018-11-20T07:06:10.662Z,3.30
2018-11-20T07:08:48.851Z,3.30
2018-11-20T07:11:24.032Z,3.40
2018-11-20T07:13:58.896Z,3.40
2018-11-20T07:16:33.486Z,3.40
2018-11-20T07:19:08.324Z,3.40
2018-11-20T07:24:01.133Z,3.40
2018-11-20T07:26:36.565Z,3.50
2018-11-20T07:29:11.486Z,3.40
2018-11-20T07:31:46.672Z,3.50
2018-11-20T07:34:21.162Z,3.50
2018-11-20T07:36:56.298Z,3.50
2018-11-20T07:39:30.844Z,3.50
2018-11-20T07:44:57.954Z,3.60
2018-11-20T07:47:40.054Z,3.70
2018-11-20T07:50:22.137Z,3.60
2018-11-20T07:53:04.234Z,3.60
2018-11-20T07:55:46.539Z,3.60
2018-11-20T07:58:28.713Z,3.70
2018-11-20T08:01:10.542Z,3.70
2018-11-20T08:03:52.607Z,3.70
2018-11-20T08:06:34.847Z,3.70
2018-11-20T08:09:16.919Z,3.80
2018-11-20T08:11:59.009Z,3.90
2018-11-20T08:14:41.070Z,3.70
2018-11-20T08:17:23.115Z,3.70
2018-11-20T08:20:05.199Z,3.80
2018-11-20T08:22:47.287Z,3.80
2018-11-20T08:25:29.937Z,3.80
2018-11-20T08:28:11.840Z,3.80
2018-11-20T08:33:33.593Z,3.80
2018-11-20T08:36:08.157Z,3.80
2018-11-20T08:38:50.212Z,3.80
2018-11-20T08:41:31.264Z,3.80
2018-11-20T08:44:13.360Z,3.70
2018-11-20T08:46:53.544Z,3.80
2018-11-20T08:52:20.470Z,3.80
2018-11-20T08:55:02.366Z,3.80
2018-11-20T08:57:44.495Z,3.80
2018-11-20T09:00:26.705Z,3.80
2018-11-20T09:03:08.868Z,3.80
2018-11-20T09:05:50.887Z,3.80
2018-11-20T09:11:11.138Z,3.80
2018-11-20T09:13:53.239Z,3.90
2018-11-20T09:16:35.350Z,3.80
2018-11-20T09:19:17.493Z,3.80
2018-11-20T09:21:59.576Z,3.90
2018-11-20T09:27:17.967Z,3.80
2018-11-20T09:30:00.272Z,3.90
2018-11-20T09:32:29.922Z,3.90
2018-11-20T09:35:05.245Z,3.90
2018-11-20T09:40:17.980Z,3.90
2018-11-20T09:43:00.087Z,3.90
2018-11-20T09:45:38.303Z,3.80
2018-11-20T09:48:20.127Z,3.90
2018-11-20T09:51:02.289Z,4.00
2018-11-20T09:53:44.403Z,3.90
2018-11-20T09:56:26.526Z,4.00
2018-11-20T09:59:08.644Z,4.10
2018-11-20T10:01:50.784Z,4.10
2018-11-20T10:04:32.860Z,4.10
2018-11-20T10:07:15.115Z,4.10
2018-11-20T10:09:57.513Z,4.20
2018-11-20T10:12:39.577Z,4.10
2018-11-20T10:17:18.965Z,4.20
2018-11-20T10:19:53.444Z,4.10
2018-11-20T10:22:20.756Z,4.20
2018-11-20T10:24:41.643Z,4.20
2018-11-20T10:27:03.155Z,4.20
2018-11-20T10:29:47.865Z,4.20
2018-11-20T10:32:18.306Z,4.20
2018-11-20T10:34:39.978Z,4.20
2018-11-20T10:37:01.300Z,4.20
2018-11-20T10:39:23.718Z,4.20
2018-11-20T10:41:44.945Z,4.20
2018-11-20T10:44:19.768Z,4.10
2018-11-20T10:46:40.928Z,4.10
2018-11-20T10:49:02.098Z,4.10
2018-11-20T10:51:39.525Z,4.10
2018-11-20T10:53:52.069Z,4.10
2018-11-20T10:56:08.195Z,4.20
2018-11-20T10:58:28.835Z,4.10
2018-11-20T11:00:49.901Z,4.10
2018-11-20T11:03:12.511Z,4.10
2018-11-20T11:05:51.858Z,4.10
2018-11-20T11:08:12.817Z,4.20
2018-11-20T11:10:31.239Z,4.10
2018-11-20T11:12:52.241Z,4.10
2018-11-20T11:15:18.203Z,4.10
2018-11-20T11:17:39.501Z,4.10
2018-11-20T11:20:09.426Z,4.10
2018-11-20T11:22:30.685Z,4.20
2018-11-20T11:24:51.348Z,4.10
2018-11-20T11:27:06.611Z,4.10
2018-11-20T11:29:34.905Z,4.10
2018-11-20T11:31:55.775Z,4.10
2018-11-20T11:34:27.448Z,4.20
2018-11-20T11:36:55.621Z,4.20
2018-11-20T11:39:21.381Z,4.20
2018-11-20T11:41:55.755Z,4.20
2018-11-20T11:44:24.224Z,4.10
2018-11-20T11:46:45.461Z,4.20
2018-11-20T11:49:06.573Z,4.10
2018-11-20T11:51:27.474Z,4.20
2018-11-20T11:53:48.634Z,4.20
2018-11-20T11:56:29.087Z,4.20
2018-11-20T11:58:51.921Z,4.20
2018-11-20T12:01:20.690Z,4.10
2018-11-20T12:03:48.579Z,4.10
2018-11-20T12:06:09.796Z,4.10
2018-11-20T12:08:40.900Z,4.10
2018-11-20T12:11:01.683Z,4.10
2018-11-20T12:13:29.591Z,4.10
2018-11-20T12:15:57.758Z,4.10
2018-11-20T12:18:16.555Z,4.10
2018-11-20T12:20:39.022Z,4.10
2018-11-20T12:22:50.098Z,4.10
2018-11-20T12:25:10.903Z,4.10
2018-11-20T12:27:40.270Z,4.00
2018-11-20T12:30:04.529Z,4.10
2018-11-20T12:32:26.700Z,4.00
2018-11-20T12:34:48.413Z,4.00
2018-11-20T12:37:25.842Z,4.00
2018-11-20T12:39:46.895Z,4.10
2018-11-20T12:42:10.285Z,4.00
2018-11-20T12:44:30.509Z,4.00
2018-11-20T12:46:51.857Z,4.00
2018-11-20T12:49:12.624Z,3.90
2018-11-20T12:51:48.740Z,4.00
2018-11-20T12:53:59.730Z,3.90
2018-11-20T12:56:20.242Z,3.90
2018-11-20T12:59:00.918Z,3.90
2018-11-20T13:01:22.199Z,3.90
2018-11-20T13:04:02.615Z,3.90
2018-11-20T13:06:23.903Z,3.80
2018-11-20T13:08:45.685Z,3.80
2018-11-20T13:11:11.125Z,3.90
2018-11-20T13:13:40.307Z,3.80
2018-11-20T13:16:02.884Z,3.80
2018-11-20T13:18:22.764Z,3.90
2018-11-20T13:20:43.897Z,3.80
2018-11-20T13:23:04.636Z,3.90
2018-11-20T13:25:32.512Z,3.90
2018-11-20T13:27:53.746Z,3.80
2018-11-20T13:30:25.098Z,3.70
2018-11-20T13:32:42.397Z,3.70
2018-11-20T13:35:02.470Z,3.70
2018-11-20T13:37:35.606Z,3.80
2018-11-20T13:39:55.103Z,3.80
2018-11-20T13:42:28.337Z,3.80
2018-11-20T13:48:04.857Z,3.80
2018-11-20T13:50:25.749Z,3.80
2018-11-20T13:53:06.377Z,3.70
2018-11-20T13:55:27.290Z,3.80
2018-11-20T13:57:47.048Z,3.70
2018-11-20T14:00:09.741Z,3.70
2018-11-20T14:02:30.717Z,3.70
2018-11-20T14:04:52.260Z,3.70
2018-11-20T14:07:17.969Z,3.70
2018-11-20T14:09:43.316Z,3.70
2018-11-20T14:12:03.971Z,3.60
2018-11-20T14:14:22.937Z,3.60
2018-11-20T14:16:43.353Z,3.70
2018-11-20T14:19:05.945Z,3.70
2018-11-20T14:21:37.639Z,3.50
2018-11-20T14:24:06.084Z,3.70
2018-11-20T14:26:26.988Z,3.70
2018-11-20T14:28:52.561Z,3.70
2018-11-20T14:31:24.102Z,3.70
2018-11-20T14:33:55.372Z,3.70
2018-11-20T14:36:16.322Z,3.70
2018-11-20T14:38:41.869Z,3.60
2018-11-20T14:41:04.531Z,3.70
2018-11-20T14:43:20.017Z,3.60
2018-11-20T14:45:32.824Z,3.60
2018-11-20T14:47:46.142Z,3.60
2018-11-20T14:50:06.930Z,3.60
2018-11-20T14:52:27.697Z,3.60
2018-11-20T14:54:49.183Z,3.70
2018-11-20T14:57:10.061Z,3.70
2018-11-20T14:59:31.090Z,3.60
2018-11-20T15:01:56.475Z,3.60
2018-11-20T15:04:22.601Z,3.60
2018-11-20T15:06:45.198Z,3.60
2018-11-20T15:09:13.326Z,3.60
2018-11-20T15:11:35.760Z,3.60
2018-11-20T15:13:58.276Z,3.70
2018-11-20T15:16:19.926Z,3.60
2018-11-20T15:18:48.192Z,3.60
2018-11-20T15:21:09.139Z,3.60
2018-11-20T15:23:34.774Z,3.60
2018-11-20T15:25:54.333Z,3.60
2018-11-20T15:28:19.620Z,3.60
2018-11-20T15:30:57.383Z,3.70
2018-11-20T15:33:35.059Z,3.70
2018-11-20T15:36:00.182Z,3.70
2018-11-20T15:38:37.506Z,3.70
2018-11-20T15:40:58.477Z,3.70
2018-11-20T15:43:19.642Z,3.80
2018-11-20T15:45:42.526Z,3.70
2018-11-20T15:48:03.664Z,3.70
2018-11-20T15:50:26.356Z,3.70
2018-11-20T15:52:51.953Z,3.70
2018-11-20T15:55:20.270Z,3.70
2018-11-20T15:57:42.861Z,3.70
2018-11-20T16:00:00.702Z,3.70
2018-11-20T16:02:35.211Z,3.70
2018-11-20T16:04:57.823Z,3.60
2018-11-20T16:07:35.299Z,3.60
2018-11-20T16:10:06.790Z,3.60
2018-11-20T16:12:30.511Z,3.60
2018-11-20T16:14:48.844Z,3.60
2018-11-20T16:17:16.462Z,3.60
2018-11-20T16:19:26.550Z,3.60
2018-11-20T16:21:49.438Z,3.60
2018-11-20T16:24:15.268Z,3.70
2018-11-20T16:26:27.209Z,3.70
2018-11-20T16:28:48.328Z,3.60
2018-11-20T16:31:08.281Z,3.60
2018-11-20T16:33:23.308Z,3.60
2018-11-20T16:35:46.060Z,3.60
2018-11-20T16:38:17.672Z,3.60
2018-11-20T16:40:38.912Z,3.60
2018-11-20T16:43:01.573Z,3.60
2018-11-20T16:45:23.169Z,3.60
2018-11-20T16:47:43.715Z,3.50
2018-11-20T16:50:14.771Z,3.60
2018-11-20T16:52:35.575Z,3.50
2018-11-20T16:55:01.643Z,3.50
2018-11-20T16:57:27.515Z,3.60
2018-11-20T16:59:51.956Z,3.50
2018-11-20T17:02:13.141Z,3.50
2018-11-20T17:04:39.915Z,3.50
2018-11-20T17:07:14.562Z,3.60
2018-11-20T17:09:35.669Z,3.60
2018-11-20T17:11:56.760Z,3.50
2018-11-20T17:16:41.320Z,3.50
2018-11-20T17:19:18.656Z,3.50
2018-11-20T17:21:39.935Z,3.50
2018-11-20T17:24:08.496Z,3.40
2018-11-20T17:26:29.598Z,3.40
2018-11-20T17:28:49.860Z,3.40
2018-11-20T17:31:10.447Z,3.40
2018-11-20T17:33:51.091Z,3.40
2018-11-20T17:36:22.492Z,3.40
2018-11-20T17:38:59.917Z,3.40
2018-11-20T17:41:22.595Z,3.40
2018-11-20T17:43:43.739Z,3.40
2018-11-20T17:46:12.313Z,3.40
2018-11-20T17:48:31.774Z,3.40
2018-11-20T17:51:00.362Z,3.40
2018-11-20T17:53:25.572Z,3.40
2018-11-20T17:55:38.739Z,3.40
2018-11-20T17:57:59.780Z,3.40
2018-11-20T18:00:31.828Z,3.40
2018-11-20T18:03:09.698Z,3.40
2018-11-20T18:05:30.795Z,3.40
2018-11-20T18:07:55.902Z,3.40
2018-11-20T18:10:07.586Z,3.30
2018-11-20T18:12:28.657Z,3.30
2018-11-20T18:15:06.411Z,3.40
2018-11-20T18:17:21.209Z,3.30
2018-11-20T18:19:42.094Z,3.30
2018-11-20T18:21:59.040Z,3.30
2018-11-20T18:24:23.423Z,3.30
2018-11-20T18:26:43.485Z,3.30
2018-11-20T18:29:04.838Z,3.30
2018-11-20T18:31:18.019Z,3.30
2018-11-20T18:33:40.724Z,3.30
2018-11-20T18:36:03.864Z,3.30
2018-11-20T18:38:26.379Z,3.40
2018-11-20T18:40:47.493Z,3.40
2018-11-20T18:43:24.841Z,3.40
2018-11-20T18:45:45.986Z,3.30
2018-11-20T18:48:07.064Z,3.40
2018-11-20T18:50:35.701Z,3.30
2018-11-20T18:52:55.402Z,3.30
2018-11-20T18:55:16.248Z,3.40
2018-11-20T18:57:29.843Z,3.40
2018-11-20T18:59:52.671Z,3.40
2018-11-20T19:02:18.377Z,3.40
2018-11-20T19:04:52.979Z,3.40
2018-11-20T19:07:30.650Z,3.40
2018-11-20T19:10:11.179Z,3.30
2018-11-20T19:12:33.843Z,3.30
2018-11-20T19:15:11.618Z,3.40
2018-11-20T19:17:32.498Z,3.40
2018-11-20T19:19:46.367Z,3.30
2018-11-20T19:22:08.058Z,3.40
2018-11-20T19:24:28.727Z,3.40
2018-11-20T19:26:42.230Z,3.30
2018-11-20T19:29:13.656Z,3.30
2018-11-20T19:31:41.195Z,3.40
2018-11-20T19:33:56.026Z,3.30
2018-11-20T19:36:12.603Z,3.30
2018-11-20T19:38:35.045Z,3.40
2018-11-20T19:41:12.715Z,3.30
2018-11-20T19:43:36.632Z,3.30
2018-11-20T19:46:05.168Z,3.40
2018-11-20T19:48:28.081Z,3.40
2018-11-20T19:50:49.026Z,3.40
2018-11-20T19:53:12.112Z,3.40
2018-11-20T19:55:26.116Z,3.40
2018-11-20T19:57:53.134Z,3.50
2018-11-20T20:00:16.560Z,3.40
2018-11-20T20:02:37.774Z,3.50
2018-11-20T20:05:09.211Z,3.40
2018-11-20T20:07:19.753Z,3.40
2018-11-20T20:09:39.751Z,3.40
2018-11-20T20:12:01.010Z,3.40
2018-11-20T20:14:14.328Z,3.50
2018-11-20T20:16:42.509Z,3.40
2018-11-20T20:19:06.746Z,3.40
2018-11-20T20:21:23.589Z,3.40
2018-11-20T20:23:45.980Z,3.50
2018-11-20T20:26:23.634Z,3.40
2018-11-20T20:28:44.592Z,3.50
2018-11-20T20:31:25.297Z,3.40
2018-11-20T20:33:46.285Z,3.40
2018-11-20T20:35:59.344Z,3.40
2018-11-20T20:38:15.902Z,3.40
2018-11-20T20:40:37.275Z,3.40
2018-11-20T20:42:50.342Z,3.40
2018-11-20T20:45:28.158Z,3.50
2018-11-20T20:48:02.955Z,3.40
2018-11-20T20:50:15.462Z,3.40
2018-11-20T20:52:36.541Z,3.50
2018-11-20T20:55:07.900Z,3.50
2018-11-20T20:57:36.018Z,3.40
2018-11-20T20:59:57.085Z,3.40
2018-11-20T21:02:28.493Z,3.40
2018-11-20T21:05:06.334Z,3.40
2018-11-20T21:07:28.829Z,3.40
2018-11-20T21:09:43.828Z,3.30
2018-11-20T21:12:18.281Z,3.40
2018-11-20T21:14:41.361Z,3.30
2018-11-20T21:17:00.730Z,3.30
2018-11-20T21:19:16.544Z,3.40
2018-11-20T21:21:42.315Z,3.40
2018-11-20T21:24:10.941Z,3.40
2018-11-20T21:26:36.347Z,3.40
2018-11-20T21:28:48.838Z,3.30
2018-11-20T21:31:14.146Z,3.40
2018-11-20T21:33:40.439Z,3.40
2018-11-20T21:36:01.486Z,3.40
2018-11-20T21:38:27.090Z,3.30
2018-11-20T21:40:48.596Z,3.30
2018-11-20T21:43:10.249Z,3.30
2018-11-20T21:45:31.418Z,3.30
2018-11-20T21:47:45.064Z,3.30
2018-11-20T21:50:13.516Z,3.40
2018-11-20T21:52:41.753Z,3.40
2018-11-20T21:55:02.322Z,3.30
2018-11-20T21:57:31.201Z,3.40
2018-11-20T21:59:54.944Z,3.30
2018-11-20T22:02:35.478Z,3.30
2018-11-20T22:05:13.384Z,3.30
2018-11-20T22:07:35.993Z,3.30
2018-11-20T22:09:59.190Z,3.40
2018-11-20T22:12:20.270Z,3.40
2018-11-20T22:14:44.464Z,3.30
2018-11-20T22:17:12.974Z,3.30
2018-11-20T22:19:34.130Z,3.30
2018-11-20T22:21:59.399Z,3.30
2018-11-20T22:24:21.179Z,3.40
2018-11-20T22:26:55.683Z,3.30
2018-11-20T22:29:15.522Z,3.30
2018-11-20T22:31:46.222Z,3.30
2018-11-20T22:34:07.037Z,3.30
2018-11-20T22:36:44.820Z,3.30
2018-11-20T22:39:12.016Z,3.30
2018-11-20T22:41:25.689Z,3.30
2018-11-20T22:43:50.849Z,3.30
2018-11-20T22:46:22.442Z,3.30
2018-11-20T22:48:38.519Z,3.30
2018-11-20T22:50:51.143Z,3.30
2018-11-20T22:53:09.969Z,3.30
2018-11-20T22:55:35.451Z,3.30
2018-11-20T22:57:58.156Z,3.30
2018-11-20T23:00:23.569Z,3.30
2018-11-20T23:02:58.252Z,3.30
2018-11-20T23:05:19.968Z,3.30
2018-11-20T23:07:43.473Z,3.30
2018-11-20T23:09:47.010Z,3.30
2018-11-20T23:11:50.539Z,3.30
2018-11-20T23:13:54.153Z,3.30
2018-11-20T23:15:57.702Z,3.30
2018-11-20T23:18:01.160Z,3.30
2018-11-20T23:20:05.589Z,3.30
2018-11-20T23:22:09.083Z,3.40
2018-11-20T23:24:13.741Z,3.40
2018-11-20T23:26:17.524Z,3.40
2018-11-20T23:28:20.750Z,3.40
2018-11-20T23:30:24.253Z,3.40
2018-11-20T23:32:27.766Z,3.30
2018-11-20T23:34:30.967Z,3.30
2018-11-20T23:36:35.426Z,3.30
2018-11-20T23:38:38.876Z,3.30
2018-11-20T23:40:42.274Z,3.30
2018-11-20T23:42:46.017Z,3.30
2018-11-20T23:44:49.504Z,3.30
2018-11-20T23:46:53.054Z,3.30
2018-11-20T23:48:56.514Z,3.30
2018-11-20T23:51:00.090Z,3.30
2018-11-20T23:53:03.511Z,3.30
2018-11-20T23:55:08.754Z,3.30
2018-11-20T23:57:12.103Z,3.30
2018-11-20T23:59:15.610Z,3.20
